sensor_id;sensor_type;location;lat;lon;timestamp;P1;durP1;ratioP1;P2;durP2;ratioP2
72586;SDS011;60621;49.576;11.024;2022-12-18T00:00:04;45.22;;;18.17;;
72586;SDS011;60621;49.576;11.024;2022-12-18T00:01:15;46.55;;;18.63;;
72586;SDS011;60621;49.576;11.024;2022-12-18T00:02:19;44.20;;;17.35;;
72586;SDS011;60621;49.576;11.024;2022-12-18T00:03:21;43.58;;;17.58;;
72586;SDS011;60621;49.576;11.024;2022-12-18T00:04:23;45.03;;;17.70;;
72586;SDS011;60621;49.576;11.024;2022-12-18T00:05:25;44.35;;;17.50;;
72586;SDS011;60621;49.576;11.024;2022-12-18T00:06:28;43.08;;;17.23;;
72586;SDS011;60621;49.576;11.024;2022-12-18T00:08:32;42.63;;;16.40;;
72586;SDS011;60621;49.576;11.024;2022-12-18T00:09:33;49.20;;;17.83;;
72586;SDS011;60621;49.576;11.024;2022-12-18T00:10:40;45.53;;;17.77;;
72586;SDS011;60621;49.576;11.024;2022-12-18T00:11:42;41.95;;;17.52;;
72586;SDS011;60621;49.576;11.024;2022-12-18T00:12:47;39.85;;;16.05;;
72586;SDS011;60621;49.576;11.024;2022-12-18T00:13:49;38.20;;;15.73;;
72586;SDS011;60621;49.576;11.024;2022-12-18T00:14:50;39.53;;;17.02;;
72586;SDS011;60621;49.576;11.024;2022-12-18T00:15:52;45.10;;;16.27;;
72586;SDS011;60621;49.576;11.024;2022-12-18T00:16:56;42.58;;;16.60;;
72586;SDS011;60621;49.576;11.024;2022-12-18T00:18:01;44.95;;;17.42;;
72586;SDS011;60621;49.576;11.024;2022-12-18T00:19:03;43.25;;;16.75;;
72586;SDS011;60621;49.576;11.024;2022-12-18T00:20:06;38.88;;;16.42;;
72586;SDS011;60621;49.576;11.024;2022-12-18T00:21:09;43.95;;;16.90;;
72586;SDS011;60621;49.576;11.024;2022-12-18T00:22:11;41.42;;;16.30;;
72586;SDS011;60621;49.576;11.024;2022-12-18T00:23:13;50.03;;;19.23;;
72586;SDS011;60621;49.576;11.024;2022-12-18T00:24:14;53.40;;;20.33;;
72586;SDS011;60621;49.576;11.024;2022-12-18T00:25:16;59.42;;;18.65;;
72586;SDS011;60621;49.576;11.024;2022-12-18T00:26:19;52.75;;;19.38;;
72586;SDS011;60621;49.576;11.024;2022-12-18T00:27:23;47.35;;;18.00;;
72586;SDS011;60621;49.576;11.024;2022-12-18T00:28:24;44.00;;;16.67;;
72586;SDS011;60621;49.576;11.024;2022-12-18T00:29:26;43.45;;;17.33;;
72586;SDS011;60621;49.576;11.024;2022-12-18T00:30:27;43.72;;;18.10;;
72586;SDS011;60621;49.576;11.024;2022-12-18T00:31:29;43.85;;;16.20;;
72586;SDS011;60621;49.576;11.024;2022-12-18T00:32:30;40.13;;;16.70;;
72586;SDS011;60621;49.576;11.024;2022-12-18T00:33:33;42.00;;;16.58;;
72586;SDS011;60621;49.576;11.024;2022-12-18T00:34:36;41.65;;;15.93;;
72586;SDS011;60621;49.576;11.024;2022-12-18T00:35:38;36.67;;;14.77;;
72586;SDS011;60621;49.576;11.024;2022-12-18T00:36:40;41.55;;;15.68;;
72586;SDS011;60621;49.576;11.024;2022-12-18T00:37:42;44.22;;;16.85;;
72586;SDS011;60621;49.576;11.024;2022-12-18T00:38:44;38.53;;;14.98;;
72586;SDS011;60621;49.576;11.024;2022-12-18T00:39:47;41.30;;;16.10;;
72586;SDS011;60621;49.576;11.024;2022-12-18T00:40:49;44.28;;;15.98;;
72586;SDS011;60621;49.576;11.024;2022-12-18T00:41:51;47.78;;;16.15;;
72586;SDS011;60621;49.576;11.024;2022-12-18T00:43:11;54.17;;;17.70;;
72586;SDS011;60621;49.576;11.024;2022-12-18T00:44:13;71.60;;;22.35;;
72586;SDS011;60621;49.576;11.024;2022-12-18T00:45:17;123.60;;;30.40;;
72586;SDS011;60621;49.576;11.024;2022-12-18T00:46:18;118.35;;;29.13;;
72586;SDS011;60621;49.576;11.024;2022-12-18T00:47:20;100.85;;;27.27;;
72586;SDS011;60621;49.576;11.024;2022-12-18T00:48:21;91.35;;;24.98;;
72586;SDS011;60621;49.576;11.024;2022-12-18T00:49:23;79.82;;;23.50;;
72586;SDS011;60621;49.576;11.024;2022-12-18T00:50:25;93.18;;;25.48;;
72586;SDS011;60621;49.576;11.024;2022-12-18T00:51:27;88.28;;;25.25;;
72586;SDS011;60621;49.576;11.024;2022-12-18T00:52:28;76.57;;;23.98;;
72586;SDS011;60621;49.576;11.024;2022-12-18T00:53:30;81.20;;;23.58;;
72586;SDS011;60621;49.576;11.024;2022-12-18T00:54:31;65.45;;;22.90;;
72586;SDS011;60621;49.576;11.024;2022-12-18T00:55:33;70.85;;;20.65;;
72586;SDS011;60621;49.576;11.024;2022-12-18T00:56:36;59.33;;;19.33;;
72586;SDS011;60621;49.576;11.024;2022-12-18T00:57:50;60.33;;;21.45;;
72586;SDS011;60621;49.576;11.024;2022-12-18T00:58:52;67.82;;;21.63;;
72586;SDS011;60621;49.576;11.024;2022-12-18T00:59:54;70.28;;;21.48;;
72586;SDS011;60621;49.576;11.024;2022-12-18T01:00:56;67.57;;;21.42;;
72586;SDS011;60621;49.576;11.024;2022-12-18T01:01:57;62.10;;;21.13;;
72586;SDS011;60621;49.576;11.024;2022-12-18T01:02:59;63.35;;;18.77;;
72586;SDS011;60621;49.576;11.024;2022-12-18T01:04:02;58.08;;;18.98;;
72586;SDS011;60621;49.576;11.024;2022-12-18T01:05:04;59.80;;;18.80;;
72586;SDS011;60621;49.576;11.024;2022-12-18T01:06:07;53.70;;;18.42;;
72586;SDS011;60621;49.576;11.024;2022-12-18T01:08:11;61.17;;;19.15;;
72586;SDS011;60621;49.576;11.024;2022-12-18T01:09:12;70.03;;;19.73;;
72586;SDS011;60621;49.576;11.024;2022-12-18T01:10:15;70.00;;;20.55;;
72586;SDS011;60621;49.576;11.024;2022-12-18T01:11:17;74.65;;;23.42;;
72586;SDS011;60621;49.576;11.024;2022-12-18T01:12:20;70.57;;;21.48;;
72586;SDS011;60621;49.576;11.024;2022-12-18T01:13:22;72.82;;;21.08;;
72586;SDS011;60621;49.576;11.024;2022-12-18T01:14:23;65.20;;;21.40;;
72586;SDS011;60621;49.576;11.024;2022-12-18T01:15:25;46.20;;;16.67;;
72586;SDS011;60621;49.576;11.024;2022-12-18T01:16:27;45.90;;;16.05;;
72586;SDS011;60621;49.576;11.024;2022-12-18T01:17:28;41.97;;;15.98;;
72586;SDS011;60621;49.576;11.024;2022-12-18T01:18:30;40.47;;;15.80;;
72586;SDS011;60621;49.576;11.024;2022-12-18T01:19:31;41.97;;;15.68;;
72586;SDS011;60621;49.576;11.024;2022-12-18T01:20:33;41.90;;;14.90;;
72586;SDS011;60621;49.576;11.024;2022-12-18T01:21:35;36.88;;;15.05;;
72586;SDS011;60621;49.576;11.024;2022-12-18T01:22:36;39.95;;;15.52;;
72586;SDS011;60621;49.576;11.024;2022-12-18T01:23:38;42.08;;;15.68;;
72586;SDS011;60621;49.576;11.024;2022-12-18T01:24:40;39.75;;;14.75;;
72586;SDS011;60621;49.576;11.024;2022-12-18T01:25:42;39.33;;;15.38;;
72586;SDS011;60621;49.576;11.024;2022-12-18T01:26:43;44.92;;;15.20;;
72586;SDS011;60621;49.576;11.024;2022-12-18T01:27:45;40.15;;;15.35;;
72586;SDS011;60621;49.576;11.024;2022-12-18T01:28:46;39.38;;;15.20;;
72586;SDS011;60621;49.576;11.024;2022-12-18T01:29:48;41.35;;;15.63;;
72586;SDS011;60621;49.576;11.024;2022-12-18T01:30:50;35.55;;;14.20;;
72586;SDS011;60621;49.576;11.024;2022-12-18T01:31:54;37.83;;;15.10;;
72586;SDS011;60621;49.576;11.024;2022-12-18T01:32:56;35.17;;;14.32;;
72586;SDS011;60621;49.576;11.024;2022-12-18T01:34:02;34.78;;;14.88;;
72586;SDS011;60621;49.576;11.024;2022-12-18T01:35:06;34.33;;;13.70;;
72586;SDS011;60621;49.576;11.024;2022-12-18T01:36:08;34.72;;;14.05;;
72586;SDS011;60621;49.576;11.024;2022-12-18T01:37:16;37.97;;;14.20;;
72586;SDS011;60621;49.576;11.024;2022-12-18T01:38:17;37.72;;;14.02;;
72586;SDS011;60621;49.576;11.024;2022-12-18T01:39:19;36.35;;;14.05;;
72586;SDS011;60621;49.576;11.024;2022-12-18T01:40:20;31.73;;;13.70;;
72586;SDS011;60621;49.576;11.024;2022-12-18T01:41:24;38.97;;;14.48;;
72586;SDS011;60621;49.576;11.024;2022-12-18T01:42:28;36.30;;;14.27;;
72586;SDS011;60621;49.576;11.024;2022-12-18T01:43:49;33.30;;;13.43;;
72586;SDS011;60621;49.576;11.024;2022-12-18T01:46:07;34.70;;;13.65;;
72586;SDS011;60621;49.576;11.024;2022-12-18T01:47:09;33.17;;;13.02;;
72586;SDS011;60621;49.576;11.024;2022-12-18T01:48:34;30.73;;;12.68;;
72586;SDS011;60621;49.576;11.024;2022-12-18T01:49:35;34.83;;;13.00;;
72586;SDS011;60621;49.576;11.024;2022-12-18T01:50:41;35.55;;;13.63;;
72586;SDS011;60621;49.576;11.024;2022-12-18T01:51:44;32.20;;;13.18;;
72586;SDS011;60621;49.576;11.024;2022-12-18T01:52:49;35.22;;;13.30;;
72586;SDS011;60621;49.576;11.024;2022-12-18T01:54:00;34.97;;;13.00;;
72586;SDS011;60621;49.576;11.024;2022-12-18T01:55:02;38.00;;;14.05;;
72586;SDS011;60621;49.576;11.024;2022-12-18T01:56:06;35.58;;;13.32;;
72586;SDS011;60621;49.576;11.024;2022-12-18T01:57:10;33.80;;;13.77;;
72586;SDS011;60621;49.576;11.024;2022-12-18T01:58:11;36.70;;;13.32;;
72586;SDS011;60621;49.576;11.024;2022-12-18T01:59:13;29.73;;;12.65;;
72586;SDS011;60621;49.576;11.024;2022-12-18T02:00:17;30.20;;;12.48;;
72586;SDS011;60621;49.576;11.024;2022-12-18T02:01:23;33.03;;;13.07;;
72586;SDS011;60621;49.576;11.024;2022-12-18T02:02:26;37.65;;;13.43;;
72586;SDS011;60621;49.576;11.024;2022-12-18T02:03:30;35.72;;;14.32;;
72586;SDS011;60621;49.576;11.024;2022-12-18T02:04:31;34.75;;;12.73;;
72586;SDS011;60621;49.576;11.024;2022-12-18T02:05:46;34.63;;;13.68;;
72586;SDS011;60621;49.576;11.024;2022-12-18T02:06:51;31.30;;;12.98;;
72586;SDS011;60621;49.576;11.024;2022-12-18T02:08:04;32.78;;;13.43;;
72586;SDS011;60621;49.576;11.024;2022-12-18T02:09:21;33.28;;;13.90;;
72586;SDS011;60621;49.576;11.024;2022-12-18T02:11:59;33.92;;;13.88;;
72586;SDS011;60621;49.576;11.024;2022-12-18T02:14:29;34.80;;;13.50;;
72586;SDS011;60621;49.576;11.024;2022-12-18T02:15:49;38.65;;;15.70;;
72586;SDS011;60621;49.576;11.024;2022-12-18T02:17:01;35.13;;;14.15;;
72586;SDS011;60621;49.576;11.024;2022-12-18T02:18:14;39.70;;;14.57;;
72586;SDS011;60621;49.576;11.024;2022-12-18T02:23:38;38.15;;;14.25;;
72586;SDS011;60621;49.576;11.024;2022-12-18T02:24:59;37.80;;;14.70;;
72586;SDS011;60621;49.576;11.024;2022-12-18T02:27:07;37.33;;;15.07;;
72586;SDS011;60621;49.576;11.024;2022-12-18T02:28:13;37.17;;;15.25;;
72586;SDS011;60621;49.576;11.024;2022-12-18T02:29:23;38.88;;;15.45;;
72586;SDS011;60621;49.576;11.024;2022-12-18T02:30:47;35.92;;;13.50;;
72586;SDS011;60621;49.576;11.024;2022-12-18T02:31:52;38.72;;;14.57;;
72586;SDS011;60621;49.576;11.024;2022-12-18T02:32:56;38.50;;;15.25;;
72586;SDS011;60621;49.576;11.024;2022-12-18T02:35:04;44.90;;;15.85;;
72586;SDS011;60621;49.576;11.024;2022-12-18T02:36:08;44.83;;;14.98;;
72586;SDS011;60621;49.576;11.024;2022-12-18T02:37:13;36.80;;;15.48;;
72586;SDS011;60621;49.576;11.024;2022-12-18T02:38:17;49.70;;;16.80;;
72586;SDS011;60621;49.576;11.024;2022-12-18T02:39:19;42.88;;;17.98;;
72586;SDS011;60621;49.576;11.024;2022-12-18T02:40:23;42.38;;;16.13;;
72586;SDS011;60621;49.576;11.024;2022-12-18T02:41:27;44.83;;;17.27;;
72586;SDS011;60621;49.576;11.024;2022-12-18T02:42:29;47.47;;;17.83;;
72586;SDS011;60621;49.576;11.024;2022-12-18T02:43:31;42.90;;;17.00;;
72586;SDS011;60621;49.576;11.024;2022-12-18T02:44:33;46.65;;;17.88;;
72586;SDS011;60621;49.576;11.024;2022-12-18T02:45:49;49.17;;;18.60;;
72586;SDS011;60621;49.576;11.024;2022-12-18T02:46:54;44.60;;;16.80;;
72586;SDS011;60621;49.576;11.024;2022-12-18T02:47:56;42.00;;;17.70;;
72586;SDS011;60621;49.576;11.024;2022-12-18T02:49:02;45.97;;;18.52;;
72586;SDS011;60621;49.576;11.024;2022-12-18T02:51:33;47.85;;;17.85;;
72586;SDS011;60621;49.576;11.024;2022-12-18T02:54:08;49.67;;;17.38;;
72586;SDS011;60621;49.576;11.024;2022-12-18T02:56:54;45.15;;;16.23;;
72586;SDS011;60621;49.576;11.024;2022-12-18T02:58:03;48.30;;;16.92;;
72586;SDS011;60621;49.576;11.024;2022-12-18T02:59:17;45.25;;;17.17;;
72586;SDS011;60621;49.576;11.024;2022-12-18T03:00:29;46.67;;;17.50;;
72586;SDS011;60621;49.576;11.024;2022-12-18T03:01:45;39.90;;;16.10;;
72586;SDS011;60621;49.576;11.024;2022-12-18T03:02:59;49.20;;;18.05;;
72586;SDS011;60621;49.576;11.024;2022-12-18T03:04:30;48.10;;;16.92;;
72586;SDS011;60621;49.576;11.024;2022-12-18T03:06:04;41.60;;;15.65;;
72586;SDS011;60621;49.576;11.024;2022-12-18T03:07:12;41.97;;;16.23;;
72586;SDS011;60621;49.576;11.024;2022-12-18T03:08:30;43.88;;;15.80;;
72586;SDS011;60621;49.576;11.024;2022-12-18T03:09:38;46.63;;;16.50;;
72586;SDS011;60621;49.576;11.024;2022-12-18T03:10:49;46.50;;;17.95;;
72586;SDS011;60621;49.576;11.024;2022-12-18T03:11:58;49.35;;;16.58;;
72586;SDS011;60621;49.576;11.024;2022-12-18T03:13:26;37.17;;;15.38;;
72586;SDS011;60621;49.576;11.024;2022-12-18T03:14:35;42.88;;;15.98;;
72586;SDS011;60621;49.576;11.024;2022-12-18T03:15:43;39.55;;;15.40;;
72586;SDS011;60621;49.576;11.024;2022-12-18T03:16:49;42.60;;;15.35;;
72586;SDS011;60621;49.576;11.024;2022-12-18T03:17:56;38.20;;;15.23;;
72586;SDS011;60621;49.576;11.024;2022-12-18T03:19:04;44.45;;;16.15;;
72586;SDS011;60621;49.576;11.024;2022-12-18T03:20:14;38.08;;;13.65;;
72586;SDS011;60621;49.576;11.024;2022-12-18T03:21:19;40.00;;;15.07;;
72586;SDS011;60621;49.576;11.024;2022-12-18T03:22:27;40.78;;;15.30;;
72586;SDS011;60621;49.576;11.024;2022-12-18T03:23:38;37.50;;;14.50;;
72586;SDS011;60621;49.576;11.024;2022-12-18T03:24:44;38.47;;;14.52;;
72586;SDS011;60621;49.576;11.024;2022-12-18T03:25:47;37.95;;;14.95;;
72586;SDS011;60621;49.576;11.024;2022-12-18T03:26:53;45.28;;;15.27;;
72586;SDS011;60621;49.576;11.024;2022-12-18T03:27:59;39.10;;;14.65;;
72586;SDS011;60621;49.576;11.024;2022-12-18T03:29:06;39.10;;;15.75;;
72586;SDS011;60621;49.576;11.024;2022-12-18T03:30:10;37.28;;;14.00;;
72586;SDS011;60621;49.576;11.024;2022-12-18T03:31:14;41.35;;;14.90;;
72586;SDS011;60621;49.576;11.024;2022-12-18T03:32:28;41.35;;;15.73;;
72586;SDS011;60621;49.576;11.024;2022-12-18T03:33:40;38.00;;;15.20;;
72586;SDS011;60621;49.576;11.024;2022-12-18T03:34:53;42.92;;;16.15;;
72586;SDS011;60621;49.576;11.024;2022-12-18T03:36:00;40.92;;;15.52;;
72586;SDS011;60621;49.576;11.024;2022-12-18T03:37:02;38.83;;;15.07;;
72586;SDS011;60621;49.576;11.024;2022-12-18T03:38:03;45.22;;;15.95;;
72586;SDS011;60621;49.576;11.024;2022-12-18T03:39:05;41.15;;;15.00;;
72586;SDS011;60621;49.576;11.024;2022-12-18T03:40:07;38.35;;;15.27;;
72586;SDS011;60621;49.576;11.024;2022-12-18T03:43:02;36.17;;;14.85;;
72586;SDS011;60621;49.576;11.024;2022-12-18T03:44:13;38.53;;;14.00;;
72586;SDS011;60621;49.576;11.024;2022-12-18T03:45:27;39.05;;;15.10;;
72586;SDS011;60621;49.576;11.024;2022-12-18T03:48:01;41.90;;;15.68;;
72586;SDS011;60621;49.576;11.024;2022-12-18T03:49:24;34.83;;;14.02;;
72586;SDS011;60621;49.576;11.024;2022-12-18T03:51:49;35.53;;;14.90;;
72586;SDS011;60621;49.576;11.024;2022-12-18T03:54:15;36.05;;;14.85;;
72586;SDS011;60621;49.576;11.024;2022-12-18T03:55:18;38.67;;;14.43;;
72586;SDS011;60621;49.576;11.024;2022-12-18T03:56:22;35.67;;;14.88;;
72586;SDS011;60621;49.576;11.024;2022-12-18T03:57:28;38.53;;;14.98;;
72586;SDS011;60621;49.576;11.024;2022-12-18T03:58:32;35.95;;;13.95;;
72586;SDS011;60621;49.576;11.024;2022-12-18T04:00:38;34.80;;;11.93;;
72586;SDS011;60621;49.576;11.024;2022-12-18T04:01:42;36.88;;;13.85;;
72586;SDS011;60621;49.576;11.024;2022-12-18T04:02:49;32.00;;;12.23;;
72586;SDS011;60621;49.576;11.024;2022-12-18T04:03:54;31.70;;;12.32;;
72586;SDS011;60621;49.576;11.024;2022-12-18T04:04:58;36.53;;;14.25;;
72586;SDS011;60621;49.576;11.024;2022-12-18T04:06:03;35.78;;;13.43;;
72586;SDS011;60621;49.576;11.024;2022-12-18T04:07:07;30.27;;;12.20;;
72586;SDS011;60621;49.576;11.024;2022-12-18T04:08:09;31.75;;;12.68;;
72586;SDS011;60621;49.576;11.024;2022-12-18T04:09:10;30.70;;;12.52;;
72586;SDS011;60621;49.576;11.024;2022-12-18T04:10:12;31.60;;;12.20;;
72586;SDS011;60621;49.576;11.024;2022-12-18T04:11:15;35.72;;;12.70;;
72586;SDS011;60621;49.576;11.024;2022-12-18T04:12:17;28.58;;;10.95;;
72586;SDS011;60621;49.576;11.024;2022-12-18T04:13:22;31.40;;;12.13;;
72586;SDS011;60621;49.576;11.024;2022-12-18T04:14:25;30.08;;;12.20;;
72586;SDS011;60621;49.576;11.024;2022-12-18T04:15:26;32.10;;;11.52;;
72586;SDS011;60621;49.576;11.024;2022-12-18T04:16:28;30.20;;;11.57;;
72586;SDS011;60621;49.576;11.024;2022-12-18T04:17:30;35.92;;;12.23;;
72586;SDS011;60621;49.576;11.024;2022-12-18T04:18:31;31.33;;;11.07;;
72586;SDS011;60621;49.576;11.024;2022-12-18T04:19:33;31.35;;;10.88;;
72586;SDS011;60621;49.576;11.024;2022-12-18T04:20:35;29.95;;;11.15;;
72586;SDS011;60621;49.576;11.024;2022-12-18T04:21:36;35.83;;;12.30;;
72586;SDS011;60621;49.576;11.024;2022-12-18T04:22:38;31.02;;;11.85;;
72586;SDS011;60621;49.576;11.024;2022-12-18T04:23:39;29.70;;;11.75;;
72586;SDS011;60621;49.576;11.024;2022-12-18T04:24:41;31.02;;;12.48;;
72586;SDS011;60621;49.576;11.024;2022-12-18T04:25:43;30.17;;;11.68;;
72586;SDS011;60621;49.576;11.024;2022-12-18T04:26:44;30.20;;;11.85;;
72586;SDS011;60621;49.576;11.024;2022-12-18T04:27:46;28.73;;;11.70;;
72586;SDS011;60621;49.576;11.024;2022-12-18T04:28:48;33.00;;;12.32;;
72586;SDS011;60621;49.576;11.024;2022-12-18T04:29:49;30.13;;;12.07;;
72586;SDS011;60621;49.576;11.024;2022-12-18T04:30:51;28.50;;;12.13;;
72586;SDS011;60621;49.576;11.024;2022-12-18T04:31:52;31.08;;;12.07;;
72586;SDS011;60621;49.576;11.024;2022-12-18T04:32:54;28.80;;;12.07;;
72586;SDS011;60621;49.576;11.024;2022-12-18T04:33:55;30.33;;;11.60;;
72586;SDS011;60621;49.576;11.024;2022-12-18T04:34:57;33.17;;;12.40;;
72586;SDS011;60621;49.576;11.024;2022-12-18T04:35:58;28.63;;;11.43;;
72586;SDS011;60621;49.576;11.024;2022-12-18T04:37:00;29.00;;;11.20;;
72586;SDS011;60621;49.576;11.024;2022-12-18T04:38:01;29.13;;;11.80;;
72586;SDS011;60621;49.576;11.024;2022-12-18T04:39:03;32.83;;;12.35;;
72586;SDS011;60621;49.576;11.024;2022-12-18T04:40:05;31.73;;;12.35;;
72586;SDS011;60621;49.576;11.024;2022-12-18T04:41:07;28.52;;;11.70;;
72586;SDS011;60621;49.576;11.024;2022-12-18T04:42:09;32.10;;;11.60;;
72586;SDS011;60621;49.576;11.024;2022-12-18T04:43:10;31.05;;;12.48;;
72586;SDS011;60621;49.576;11.024;2022-12-18T04:44:12;29.55;;;12.15;;
72586;SDS011;60621;49.576;11.024;2022-12-18T04:45:13;29.92;;;11.07;;
72586;SDS011;60621;49.576;11.024;2022-12-18T04:46:15;33.80;;;12.68;;
72586;SDS011;60621;49.576;11.024;2022-12-18T04:47:17;33.20;;;12.65;;
72586;SDS011;60621;49.576;11.024;2022-12-18T04:48:18;32.45;;;12.70;;
72586;SDS011;60621;49.576;11.024;2022-12-18T04:49:21;35.00;;;12.93;;
72586;SDS011;60621;49.576;11.024;2022-12-18T04:50:23;31.92;;;12.55;;
72586;SDS011;60621;49.576;11.024;2022-12-18T04:51:24;29.42;;;11.88;;
72586;SDS011;60621;49.576;11.024;2022-12-18T04:52:27;33.58;;;11.95;;
72586;SDS011;60621;49.576;11.024;2022-12-18T04:53:28;31.75;;;12.05;;
72586;SDS011;60621;49.576;11.024;2022-12-18T04:54:30;31.15;;;12.18;;
72586;SDS011;60621;49.576;11.024;2022-12-18T04:55:31;30.83;;;12.50;;
72586;SDS011;60621;49.576;11.024;2022-12-18T04:56:33;32.10;;;13.10;;
72586;SDS011;60621;49.576;11.024;2022-12-18T04:57:34;31.50;;;12.38;;
72586;SDS011;60621;49.576;11.024;2022-12-18T04:58:36;34.17;;;12.98;;
72586;SDS011;60621;49.576;11.024;2022-12-18T04:59:39;35.60;;;13.32;;
72586;SDS011;60621;49.576;11.024;2022-12-18T05:00:41;29.40;;;12.25;;
72586;SDS011;60621;49.576;11.024;2022-12-18T05:01:42;31.23;;;12.90;;
72586;SDS011;60621;49.576;11.024;2022-12-18T05:02:44;31.55;;;12.63;;
72586;SDS011;60621;49.576;11.024;2022-12-18T05:03:46;31.20;;;11.73;;
72586;SDS011;60621;49.576;11.024;2022-12-18T05:04:48;30.90;;;12.15;;
72586;SDS011;60621;49.576;11.024;2022-12-18T05:05:50;28.30;;;11.63;;
72586;SDS011;60621;49.576;11.024;2022-12-18T05:06:52;31.42;;;12.52;;
72586;SDS011;60621;49.576;11.024;2022-12-18T05:07:53;31.38;;;12.32;;
72586;SDS011;60621;49.576;11.024;2022-12-18T05:08:55;31.50;;;12.45;;
72586;SDS011;60621;49.576;11.024;2022-12-18T05:09:56;31.33;;;12.07;;
72586;SDS011;60621;49.576;11.024;2022-12-18T05:10:59;35.08;;;12.85;;
72586;SDS011;60621;49.576;11.024;2022-12-18T05:12:02;29.60;;;11.52;;
72586;SDS011;60621;49.576;11.024;2022-12-18T05:13:03;33.25;;;12.13;;
72586;SDS011;60621;49.576;11.024;2022-12-18T05:14:05;33.00;;;12.40;;
72586;SDS011;60621;49.576;11.024;2022-12-18T05:15:06;29.30;;;12.05;;
72586;SDS011;60621;49.576;11.024;2022-12-18T05:16:08;38.33;;;13.20;;
72586;SDS011;60621;49.576;11.024;2022-12-18T05:17:10;30.73;;;11.55;;
72586;SDS011;60621;49.576;11.024;2022-12-18T05:18:11;33.90;;;12.48;;
72586;SDS011;60621;49.576;11.024;2022-12-18T05:19:12;31.20;;;12.15;;
72586;SDS011;60621;49.576;11.024;2022-12-18T05:20:14;33.75;;;11.68;;
72586;SDS011;60621;49.576;11.024;2022-12-18T05:21:16;34.58;;;12.00;;
72586;SDS011;60621;49.576;11.024;2022-12-18T05:22:18;32.50;;;12.00;;
72586;SDS011;60621;49.576;11.024;2022-12-18T05:23:19;33.35;;;11.35;;
72586;SDS011;60621;49.576;11.024;2022-12-18T05:25:24;35.05;;;11.05;;
72586;SDS011;60621;49.576;11.024;2022-12-18T05:26:26;32.15;;;11.13;;
72586;SDS011;60621;49.576;11.024;2022-12-18T05:27:27;38.92;;;13.30;;
72586;SDS011;60621;49.576;11.024;2022-12-18T05:28:29;30.48;;;11.43;;
72586;SDS011;60621;49.576;11.024;2022-12-18T05:29:32;28.55;;;10.95;;
72586;SDS011;60621;49.576;11.024;2022-12-18T05:30:33;36.85;;;12.73;;
72586;SDS011;60621;49.576;11.024;2022-12-18T05:31:35;35.80;;;13.07;;
72586;SDS011;60621;49.576;11.024;2022-12-18T05:32:40;32.42;;;12.40;;
72586;SDS011;60621;49.576;11.024;2022-12-18T05:33:42;30.13;;;11.55;;
72586;SDS011;60621;49.576;11.024;2022-12-18T05:34:44;36.75;;;12.77;;
72586;SDS011;60621;49.576;11.024;2022-12-18T05:35:55;36.35;;;13.40;;
72586;SDS011;60621;49.576;11.024;2022-12-18T05:37:01;34.53;;;13.55;;
72586;SDS011;60621;49.576;11.024;2022-12-18T05:38:03;42.05;;;14.52;;
72586;SDS011;60621;49.576;11.024;2022-12-18T05:39:04;35.78;;;13.15;;
72586;SDS011;60621;49.576;11.024;2022-12-18T05:40:06;36.10;;;12.85;;
72586;SDS011;60621;49.576;11.024;2022-12-18T05:41:08;29.80;;;11.50;;
72586;SDS011;60621;49.576;11.024;2022-12-18T05:42:10;29.73;;;12.07;;
72586;SDS011;60621;49.576;11.024;2022-12-18T05:43:12;31.17;;;11.88;;
72586;SDS011;60621;49.576;11.024;2022-12-18T05:44:21;35.80;;;13.65;;
72586;SDS011;60621;49.576;11.024;2022-12-18T05:45:22;34.25;;;12.30;;
72586;SDS011;60621;49.576;11.024;2022-12-18T05:46:24;31.48;;;12.07;;
72586;SDS011;60621;49.576;11.024;2022-12-18T05:47:26;32.75;;;11.50;;
72586;SDS011;60621;49.576;11.024;2022-12-18T05:48:28;32.38;;;12.18;;
72586;SDS011;60621;49.576;11.024;2022-12-18T05:49:30;31.98;;;11.38;;
72586;SDS011;60621;49.576;11.024;2022-12-18T05:50:33;32.83;;;12.45;;
72586;SDS011;60621;49.576;11.024;2022-12-18T05:51:36;31.80;;;12.07;;
72586;SDS011;60621;49.576;11.024;2022-12-18T05:52:38;29.48;;;11.07;;
72586;SDS011;60621;49.576;11.024;2022-12-18T05:53:40;30.45;;;11.05;;
72586;SDS011;60621;49.576;11.024;2022-12-18T05:54:43;33.90;;;11.93;;
72586;SDS011;60621;49.576;11.024;2022-12-18T05:55:45;29.88;;;12.18;;
72586;SDS011;60621;49.576;11.024;2022-12-18T05:56:47;29.70;;;10.80;;
72586;SDS011;60621;49.576;11.024;2022-12-18T05:57:49;30.70;;;11.18;;
72586;SDS011;60621;49.576;11.024;2022-12-18T05:58:51;31.27;;;10.98;;
72586;SDS011;60621;49.576;11.024;2022-12-18T05:59:54;30.65;;;12.07;;
72586;SDS011;60621;49.576;11.024;2022-12-18T06:00:56;30.15;;;11.50;;
72586;SDS011;60621;49.576;11.024;2022-12-18T06:01:58;30.23;;;12.15;;
72586;SDS011;60621;49.576;11.024;2022-12-18T06:02:59;28.27;;;11.13;;
72586;SDS011;60621;49.576;11.024;2022-12-18T06:04:01;28.35;;;10.77;;
72586;SDS011;60621;49.576;11.024;2022-12-18T06:05:04;30.92;;;12.27;;
72586;SDS011;60621;49.576;11.024;2022-12-18T06:06:27;31.52;;;11.65;;
72586;SDS011;60621;49.576;11.024;2022-12-18T06:07:29;31.40;;;10.85;;
72586;SDS011;60621;49.576;11.024;2022-12-18T06:08:31;29.98;;;11.23;;
72586;SDS011;60621;49.576;11.024;2022-12-18T06:09:32;30.98;;;11.57;;
72586;SDS011;60621;49.576;11.024;2022-12-18T06:10:34;31.55;;;11.90;;
72586;SDS011;60621;49.576;11.024;2022-12-18T06:11:36;29.08;;;10.95;;
72586;SDS011;60621;49.576;11.024;2022-12-18T06:12:38;30.77;;;12.00;;
72586;SDS011;60621;49.576;11.024;2022-12-18T06:13:40;29.13;;;11.52;;
72586;SDS011;60621;49.576;11.024;2022-12-18T06:14:42;31.00;;;11.90;;
72586;SDS011;60621;49.576;11.024;2022-12-18T06:15:44;27.80;;;10.98;;
72586;SDS011;60621;49.576;11.024;2022-12-18T06:16:45;28.05;;;10.93;;
72586;SDS011;60621;49.576;11.024;2022-12-18T06:17:47;27.08;;;11.18;;
72586;SDS011;60621;49.576;11.024;2022-12-18T06:18:49;32.72;;;11.48;;
72586;SDS011;60621;49.576;11.024;2022-12-18T06:19:50;30.10;;;11.65;;
72586;SDS011;60621;49.576;11.024;2022-12-18T06:20:55;27.60;;;11.00;;
72586;SDS011;60621;49.576;11.024;2022-12-18T06:21:57;30.67;;;10.60;;
72586;SDS011;60621;49.576;11.024;2022-12-18T06:23:00;30.10;;;12.23;;
72586;SDS011;60621;49.576;11.024;2022-12-18T06:24:01;29.67;;;12.07;;
72586;SDS011;60621;49.576;11.024;2022-12-18T06:25:03;29.52;;;11.25;;
72586;SDS011;60621;49.576;11.024;2022-12-18T06:26:05;29.33;;;11.70;;
72586;SDS011;60621;49.576;11.024;2022-12-18T06:27:08;30.00;;;11.10;;
72586;SDS011;60621;49.576;11.024;2022-12-18T06:28:10;29.60;;;11.27;;
72586;SDS011;60621;49.576;11.024;2022-12-18T06:29:11;27.25;;;11.60;;
72586;SDS011;60621;49.576;11.024;2022-12-18T06:30:12;30.35;;;11.07;;
72586;SDS011;60621;49.576;11.024;2022-12-18T06:31:15;32.35;;;10.80;;
72586;SDS011;60621;49.576;11.024;2022-12-18T06:32:16;31.20;;;11.60;;
72586;SDS011;60621;49.576;11.024;2022-12-18T06:33:18;28.70;;;11.93;;
72586;SDS011;60621;49.576;11.024;2022-12-18T06:34:19;29.73;;;11.40;;